sensor_id;sensor_type;location;lat;lon;timestamp;P1;durP1;ratioP1;P2;durP2;ratioP2
28587;SDS011;15787;49.662;10.162;2023-03-15T00:02:16;2.63;;;2.45;;
28587;SDS011;15787;49.662;10.162;2023-03-15T00:04:50;0.10;;;0.10;;
28587;SDS011;15787;49.662;10.162;2023-03-15T00:07:26;0.00;;;0.00;;
28587;SDS011;15787;49.662;10.162;2023-03-15T00:10:00;0.00;;;0.00;;
28587;SDS011;15787;49.662;10.162;2023-03-15T00:12:33;0.10;;;0.10;;
28587;SDS011;15787;49.662;10.162;2023-03-15T00:15:06;0.10;;;0.10;;
28587;SDS011;15787;49.662;10.162;2023-03-15T00:17:39;0.10;;;0.10;;
28587;SDS011;15787;49.662;10.162;2023-03-15T00:20:13;0.10;;;0.10;;
28587;SDS011;15787;49.662;10.162;2023-03-15T00:22:47;0.10;;;0.10;;
28587;SDS011;15787;49.662;10.162;2023-03-15T00:25:20;0.80;;;0.80;;
28587;SDS011;15787;49.662;10.162;2023-03-15T00:27:53;0.10;;;0.10;;
28587;SDS011;15787;49.662;10.162;2023-03-15T00:30:26;0.47;;;0.47;;
28587;SDS011;15787;49.662;10.162;2023-03-15T00:32:59;0.10;;;0.10;;
28587;SDS011;15787;49.662;10.162;2023-03-15T00:35:32;0.10;;;0.10;;
28587;SDS011;15787;49.662;10.162;2023-03-15T00:38:11;0.10;;;0.10;;
28587;SDS011;15787;49.662;10.162;2023-03-15T00:40:45;0.10;;;0.10;;
28587;SDS011;15787;49.662;10.162;2023-03-15T00:43:18;0.10;;;0.10;;
28587;SDS011;15787;49.662;10.162;2023-03-15T00:45:51;0.10;;;0.10;;
28587;SDS011;15787;49.662;10.162;2023-03-15T00:48:24;0.10;;;0.10;;
28587;SDS011;15787;49.662;10.162;2023-03-15T00:51:00;0.10;;;0.10;;
28587;SDS011;15787;49.662;10.162;2023-03-15T00:53:37;0.10;;;0.10;;
28587;SDS011;15787;49.662;10.162;2023-03-15T00:56:12;0.10;;;0.10;;
28587;SDS011;15787;49.662;10.162;2023-03-15T00:58:46;0.00;;;0.00;;
28587;SDS011;15787;49.662;10.162;2023-03-15T01:01:22;0.10;;;0.10;;
28587;SDS011;15787;49.662;10.162;2023-03-15T01:03:56;0.10;;;0.10;;
28587;SDS011;15787;49.662;10.162;2023-03-15T01:06:30;0.10;;;0.10;;
28587;SDS011;15787;49.662;10.162;2023-03-15T01:09:05;0.10;;;0.10;;
28587;SDS011;15787;49.662;10.162;2023-03-15T01:11:38;0.20;;;0.20;;
28587;SDS011;15787;49.662;10.162;2023-03-15T01:14:10;0.10;;;0.10;;
28587;SDS011;15787;49.662;10.162;2023-03-15T01:16:43;0.10;;;0.10;;
28587;SDS011;15787;49.662;10.162;2023-03-15T01:19:17;0.10;;;0.10;;
28587;SDS011;15787;49.662;10.162;2023-03-15T01:21:50;0.05;;;0.05;;
28587;SDS011;15787;49.662;10.162;2023-03-15T01:24:25;0.10;;;0.10;;
28587;SDS011;15787;49.662;10.162;2023-03-15T01:26:58;0.10;;;0.10;;
28587;SDS011;15787;49.662;10.162;2023-03-15T01:29:31;0.10;;;0.10;;
28587;SDS011;15787;49.662;10.162;2023-03-15T01:32:05;0.10;;;0.10;;
28587;SDS011;15787;49.662;10.162;2023-03-15T01:34:38;0.00;;;0.00;;
28587;SDS011;15787;49.662;10.162;2023-03-15T01:37:11;0.00;;;0.00;;
28587;SDS011;15787;49.662;10.162;2023-03-15T01:39:49;0.10;;;0.10;;
28587;SDS011;15787;49.662;10.162;2023-03-15T01:42:22;0.10;;;0.10;;
28587;SDS011;15787;49.662;10.162;2023-03-15T01:44:56;0.00;;;0.00;;
28587;SDS011;15787;49.662;10.162;2023-03-15T01:47:30;0.10;;;0.10;;
28587;SDS011;15787;49.662;10.162;2023-03-15T01:50:04;0.00;;;0.00;;
28587;SDS011;15787;49.662;10.162;2023-03-15T01:52:41;0.10;;;0.10;;
28587;SDS011;15787;49.662;10.162;2023-03-15T01:55:22;0.10;;;0.10;;
28587;SDS011;15787;49.662;10.162;2023-03-15T01:58:05;0.10;;;0.10;;
28587;SDS011;15787;49.662;10.162;2023-03-15T02:00:43;0.10;;;0.10;;
28587;SDS011;15787;49.662;10.162;2023-03-15T02:03:20;0.10;;;0.10;;
28587;SDS011;15787;49.662;10.162;2023-03-15T02:05:57;0.10;;;0.10;;
28587;SDS011;15787;49.662;10.162;2023-03-15T02:08:44;0.10;;;0.10;;
28587;SDS011;15787;49.662;10.162;2023-03-15T02:11:23;0.10;;;0.10;;
28587;SDS011;15787;49.662;10.162;2023-03-15T02:13:59;0.10;;;0.10;;
28587;SDS011;15787;49.662;10.162;2023-03-15T02:16:35;0.00;;;0.00;;
28587;SDS011;15787;49.662;10.162;2023-03-15T02:19:17;0.10;;;0.10;;
28587;SDS011;15787;49.662;10.162;2023-03-15T02:22:10;0.10;;;0.10;;
28587;SDS011;15787;49.662;10.162;2023-03-15T02:24:53;0.10;;;0.10;;
28587;SDS011;15787;49.662;10.162;2023-03-15T02:27:33;0.10;;;0.10;;
28587;SDS011;15787;49.662;10.162;2023-03-15T02:30:08;0.80;;;0.80;;
28587;SDS011;15787;49.662;10.162;2023-03-15T02:32:45;0.10;;;0.10;;
28587;SDS011;15787;49.662;10.162;2023-03-15T02:35:22;0.10;;;0.10;;
28587;SDS011;15787;49.662;10.162;2023-03-15T02:37:56;0.10;;;0.10;;
28587;SDS011;15787;49.662;10.162;2023-03-15T02:40:29;0.10;;;0.10;;
28587;SDS011;15787;49.662;10.162;2023-03-15T02:43:05;0.10;;;0.10;;
28587;SDS011;15787;49.662;10.162;2023-03-15T02:45:42;0.10;;;0.10;;
28587;SDS011;15787;49.662;10.162;2023-03-15T02:48:16;0.10;;;0.10;;
28587;SDS011;15787;49.662;10.162;2023-03-15T02:50:50;0.10;;;0.10;;
28587;SDS011;15787;49.662;10.162;2023-03-15T02:53:23;0.10;;;0.10;;
28587;SDS011;15787;49.662;10.162;2023-03-15T02:55:56;0.03;;;0.03;;
28587;SDS011;15787;49.662;10.162;2023-03-15T02:58:30;0.10;;;0.10;;
28587;SDS011;15787;49.662;10.162;2023-03-15T03:01:05;0.20;;;0.20;;
28587;SDS011;15787;49.662;10.162;2023-03-15T03:03:38;0.10;;;0.10;;
28587;SDS011;15787;49.662;10.162;2023-03-15T03:06:12;0.10;;;0.10;;
28587;SDS011;15787;49.662;10.162;2023-03-15T03:09:06;0.10;;;0.10;;
28587;SDS011;15787;49.662;10.162;2023-03-15T03:11:39;0.00;;;0.00;;
28587;SDS011;15787;49.662;10.162;2023-03-15T03:14:13;0.10;;;0.10;;
28587;SDS011;15787;49.662;10.162;2023-03-15T03:16:46;0.10;;;0.10;;
28587;SDS011;15787;49.662;10.162;2023-03-15T03:19:21;0.10;;;0.10;;
28587;SDS011;15787;49.662;10.162;2023-03-15T03:21:56;0.10;;;0.10;;
28587;SDS011;15787;49.662;10.162;2023-03-15T03:24:30;0.10;;;0.10;;
28587;SDS011;15787;49.662;10.162;2023-03-15T03:27:04;0.10;;;0.10;;
28587;SDS011;15787;49.662;10.162;2023-03-15T03:29:41;0.10;;;0.10;;
28587;SDS011;15787;49.662;10.162;2023-03-15T03:32:15;0.10;;;0.10;;
28587;SDS011;15787;49.662;10.162;2023-03-15T03:34:48;0.10;;;0.10;;
28587;SDS011;15787;49.662;10.162;2023-03-15T03:37:25;0.10;;;0.10;;
28587;SDS011;15787;49.662;10.162;2023-03-15T03:40:05;0.10;;;0.10;;
28587;SDS011;15787;49.662;10.162;2023-03-15T03:42:40;0.10;;;0.10;;
28587;SDS011;15787;49.662;10.162;2023-03-15T03:45:14;0.10;;;0.10;;
28587;SDS011;15787;49.662;10.162;2023-03-15T03:47:49;0.10;;;0.10;;
28587;SDS011;15787;49.662;10.162;2023-03-15T03:50:22;0.10;;;0.10;;
28587;SDS011;15787;49.662;10.162;2023-03-15T03:52:55;0.10;;;0.10;;
28587;SDS011;15787;49.662;10.162;2023-03-15T03:55:34;0.10;;;0.10;;
28587;SDS011;15787;49.662;10.162;2023-03-15T03:58:07;0.10;;;0.10;;
28587;SDS011;15787;49.662;10.162;2023-03-15T04:01:05;0.10;;;0.10;;
28587;SDS011;15787;49.662;10.162;2023-03-15T04:03:40;0.10;;;0.10;;
28587;SDS011;15787;49.662;10.162;2023-03-15T04:06:19;0.10;;;0.10;;
28587;SDS011;15787;49.662;10.162;2023-03-15T04:08:53;0.10;;;0.10;;
28587;SDS011;15787;49.662;10.162;2023-03-15T04:11:34;0.10;;;0.10;;
28587;SDS011;15787;49.662;10.162;2023-03-15T04:14:10;0.10;;;0.10;;
28587;SDS011;15787;49.662;10.162;2023-03-15T04:16:47;0.10;;;0.10;;
28587;SDS011;15787;49.662;10.162;2023-03-15T04:19:21;0.10;;;0.10;;
28587;SDS011;15787;49.662;10.162;2023-03-15T04:21:55;0.10;;;0.10;;
28587;SDS011;15787;49.662;10.162;2023-03-15T04:25:01;0.10;;;0.10;;
28587;SDS011;15787;49.662;10.162;2023-03-15T04:27:56;0.10;;;0.10;;
28587;SDS011;15787;49.662;10.162;2023-03-15T04:30:46;0.10;;;0.10;;
28587;SDS011;15787;49.662;10.162;2023-03-15T04:33:41;0.10;;;0.10;;
28587;SDS011;15787;49.662;10.162;2023-03-15T04:36:41;0.10;;;0.10;;
28587;SDS011;15787;49.662;10.162;2023-03-15T04:39:33;0.10;;;0.10;;
28587;SDS011;15787;49.662;10.162;2023-03-15T04:42:22;0.10;;;0.10;;
28587;SDS011;15787;49.662;10.162;2023-03-15T04:45:26;0.10;;;0.10;;
28587;SDS011;15787;49.662;10.162;2023-03-15T04:48:18;0.10;;;0.10;;
28587;SDS011;15787;49.662;10.162;2023-03-15T04:51:10;0.20;;;0.20;;
28587;SDS011;15787;49.662;10.162;2023-03-15T04:54:02;0.10;;;0.10;;
28587;SDS011;15787;49.662;10.162;2023-03-15T04:56:54;0.15;;;0.15;;
28587;SDS011;15787;49.662;10.162;2023-03-15T04:59:45;0.10;;;0.10;;
28587;SDS011;15787;49.662;10.162;2023-03-15T05:02:38;0.10;;;0.10;;
28587;SDS011;15787;49.662;10.162;2023-03-15T05:05:31;0.10;;;0.10;;
28587;SDS011;15787;49.662;10.162;2023-03-15T05:08:24;0.10;;;0.10;;
28587;SDS011;15787;49.662;10.162;2023-03-15T05:11:16;0.10;;;0.10;;
28587;SDS011;15787;49.662;10.162;2023-03-15T05:14:08;0.10;;;0.10;;
28587;SDS011;15787;49.662;10.162;2023-03-15T05:17:04;0.10;;;0.10;;
28587;SDS011;15787;49.662;10.162;2023-03-15T05:20:04;0.10;;;0.10;;
28587;SDS011;15787;49.662;10.162;2023-03-15T05:22:51;0.10;;;0.10;;
28587;SDS011;15787;49.662;10.162;2023-03-15T05:25:49;0.00;;;0.00;;
28587;SDS011;15787;49.662;10.162;2023-03-15T05:28:47;0.00;;;0.00;;
28587;SDS011;15787;49.662;10.162;2023-03-15T05:31:35;0.10;;;0.10;;
28587;SDS011;15787;49.662;10.162;2023-03-15T05:34:23;0.10;;;0.10;;
28587;SDS011;15787;49.662;10.162;2023-03-15T05:40:14;0.10;;;0.10;;
28587;SDS011;15787;49.662;10.162;2023-03-15T05:43:15;0.10;;;0.10;;
28587;SDS011;15787;49.662;10.162;2023-03-15T05:46:07;0.10;;;0.10;;
28587;SDS011;15787;49.662;10.162;2023-03-15T05:48:54;0.75;;;0.75;;
28587;SDS011;15787;49.662;10.162;2023-03-15T05:51:40;0.10;;;0.10;;
28587;SDS011;15787;49.662;10.162;2023-03-15T05:54:26;0.10;;;0.10;;
28587;SDS011;15787;49.662;10.162;2023-03-15T05:57:10;0.10;;;0.10;;
28587;SDS011;15787;49.662;10.162;2023-03-15T06:00:04;0.10;;;0.10;;
28587;SDS011;15787;49.662;10.162;2023-03-15T06:02:45;0.10;;;0.10;;
28587;SDS011;15787;49.662;10.162;2023-03-15T06:05:40;0.10;;;0.10;;
28587;SDS011;15787;49.662;10.162;2023-03-15T06:08:18;0.10;;;0.10;;
28587;SDS011;15787;49.662;10.162;2023-03-15T06:10:54;0.10;;;0.10;;
28587;SDS011;15787;49.662;10.162;2023-03-15T06:13:28;0.10;;;0.10;;
28587;SDS011;15787;49.662;10.162;2023-03-15T06:16:04;0.10;;;0.10;;
28587;SDS011;15787;49.662;10.162;2023-03-15T06:18:41;0.10;;;0.10;;
28587;SDS011;15787;49.662;10.162;2023-03-15T06:21:14;0.10;;;0.10;;
28587;SDS011;15787;49.662;10.162;2023-03-15T06:23:47;0.10;;;0.10;;
28587;SDS011;15787;49.662;10.162;2023-03-15T06:26:21;0.20;;;0.20;;
28587;SDS011;15787;49.662;10.162;2023-03-15T06:28:58;0.10;;;0.10;;
28587;SDS011;15787;49.662;10.162;2023-03-15T06:31:33;0.10;;;0.10;;
28587;SDS011;15787;49.662;10.162;2023-03-15T06:34:10;0.20;;;0.20;;
28587;SDS011;15787;49.662;10.162;2023-03-15T06:36:43;0.10;;;0.10;;
28587;SDS011;15787;49.662;10.162;2023-03-15T06:39:16;0.10;;;0.10;;
28587;SDS011;15787;49.662;10.162;2023-03-15T06:41:50;0.10;;;0.10;;
28587;SDS011;15787;49.662;10.162;2023-03-15T06:44:30;0.25;;;0.25;;
28587;SDS011;15787;49.662;10.162;2023-03-15T06:47:09;0.10;;;0.10;;
28587;SDS011;15787;49.662;10.162;2023-03-15T06:49:42;0.10;;;0.10;;
28587;SDS011;15787;49.662;10.162;2023-03-15T06:52:16;0.10;;;0.10;;
28587;SDS011;15787;49.662;10.162;2023-03-15T06:54:50;0.10;;;0.10;;
28587;SDS011;15787;49.662;10.162;2023-03-15T06:57:23;0.10;;;0.10;;
28587;SDS011;15787;49.662;10.162;2023-03-15T06:59:56;0.10;;;0.10;;
28587;SDS011;15787;49.662;10.162;2023-03-15T07:02:30;0.10;;;0.10;;
28587;SDS011;15787;49.662;10.162;2023-03-15T07:05:08;0.13;;;0.13;;
28587;SDS011;15787;49.662;10.162;2023-03-15T07:07:42;0.10;;;0.10;;
28587;SDS011;15787;49.662;10.162;2023-03-15T07:10:15;0.10;;;0.10;;
28587;SDS011;15787;49.662;10.162;2023-03-15T07:12:48;0.10;;;0.10;;
28587;SDS011;15787;49.662;10.162;2023-03-15T07:15:21;0.10;;;0.10;;
28587;SDS011;15787;49.662;10.162;2023-03-15T07:17:55;0.10;;;0.10;;
28587;SDS011;15787;49.662;10.162;2023-03-15T07:20:28;0.10;;;0.10;;
28587;SDS011;15787;49.662;10.162;2023-03-15T07:23:01;0.10;;;0.10;;
28587;SDS011;15787;49.662;10.162;2023-03-15T07:25:34;0.10;;;0.10;;
28587;SDS011;15787;49.662;10.162;2023-03-15T07:28:25;0.10;;;0.10;;
28587;SDS011;15787;49.662;10.162;2023-03-15T07:30:59;0.10;;;0.10;;
28587;SDS011;15787;49.662;10.162;2023-03-15T07:33:34;0.10;;;0.10;;
28587;SDS011;15787;49.662;10.162;2023-03-15T07:36:08;0.10;;;0.10;;
28587;SDS011;15787;49.662;10.162;2023-03-15T07:38:41;0.10;;;0.10;;
28587;SDS011;15787;49.662;10.162;2023-03-15T07:41:14;0.10;;;0.10;;
28587;SDS011;15787;49.662;10.162;2023-03-15T07:43:58;0.10;;;0.10;;
28587;SDS011;15787;49.662;10.162;2023-03-15T07:46:31;0.10;;;0.10;;
28587;SDS011;15787;49.662;10.162;2023-03-15T07:49:05;0.10;;;0.10;;
28587;SDS011;15787;49.662;10.162;2023-03-15T07:51:38;0.10;;;0.10;;
28587;SDS011;15787;49.662;10.162;2023-03-15T07:54:12;0.10;;;0.10;;
28587;SDS011;15787;49.662;10.162;2023-03-15T07:56:45;0.10;;;0.10;;
28587;SDS011;15787;49.662;10.162;2023-03-15T07:59:19;0.10;;;0.10;;
28587;SDS011;15787;49.662;10.162;2023-03-15T08:01:52;0.10;;;0.10;;
28587;SDS011;15787;49.662;10.162;2023-03-15T08:04:27;0.10;;;0.10;;
28587;SDS011;15787;49.662;10.162;2023-03-15T08:07:00;0.10;;;0.10;;
28587;SDS011;15787;49.662;10.162;2023-03-15T08:09:33;0.10;;;0.10;;
28587;SDS011;15787;49.662;10.162;2023-03-15T08:12:06;0.10;;;0.10;;
28587;SDS011;15787;49.662;10.162;2023-03-15T08:14:39;0.10;;;0.10;;
28587;SDS011;15787;49.662;10.162;2023-03-15T08:17:12;0.10;;;0.10;;
28587;SDS011;15787;49.662;10.162;2023-03-15T08:19:48;0.20;;;0.20;;
28587;SDS011;15787;49.662;10.162;2023-03-15T08:22:21;0.10;;;0.10;;
28587;SDS011;15787;49.662;10.162;2023-03-15T08:24:54;0.20;;;0.20;;
28587;SDS011;15787;49.662;10.162;2023-03-15T08:27:28;0.10;;;0.10;;
28587;SDS011;15787;49.662;10.162;2023-03-15T08:30:01;0.10;;;0.10;;
28587;SDS011;15787;49.662;10.162;2023-03-15T08:32:35;0.10;;;0.10;;
28587;SDS011;15787;49.662;10.162;2023-03-15T08:35:10;0.10;;;0.10;;
28587;SDS011;15787;49.662;10.162;2023-03-15T08:37:46;0.00;;;0.00;;
28587;SDS011;15787;49.662;10.162;2023-03-15T08:40:20;0.10;;;0.10;;
28587;SDS011;15787;49.662;10.162;2023-03-15T08:42:56;0.08;;;0.08;;
28587;SDS011;15787;49.662;10.162;2023-03-15T08:45:29;0.82;;;0.82;;
28587;SDS011;15787;49.662;10.162;2023-03-15T08:48:13;0.10;;;0.10;;
28587;SDS011;15787;49.662;10.162;2023-03-15T08:50:47;0.10;;;0.10;;
28587;SDS011;15787;49.662;10.162;2023-03-15T08:53:20;0.10;;;0.10;;
28587;SDS011;15787;49.662;10.162;2023-03-15T08:55:53;0.10;;;0.10;;
28587;SDS011;15787;49.662;10.162;2023-03-15T08:58:26;0.10;;;0.10;;
28587;SDS011;15787;49.662;10.162;2023-03-15T09:00:59;0.10;;;0.10;;
28587;SDS011;15787;49.662;10.162;2023-03-15T09:03:32;0.10;;;0.10;;
28587;SDS011;15787;49.662;10.162;2023-03-15T09:06:07;0.20;;;0.20;;
28587;SDS011;15787;49.662;10.162;2023-03-15T09:08:40;0.10;;;0.10;;
28587;SDS011;15787;49.662;10.162;2023-03-15T09:11:13;0.10;;;0.10;;
28587;SDS011;15787;49.662;10.162;2023-03-15T09:13:46;0.10;;;0.10;;
28587;SDS011;15787;49.662;10.162;2023-03-15T09:16:19;0.10;;;0.10;;
28587;SDS011;15787;49.662;10.162;2023-03-15T09:18:52;0.10;;;0.10;;
28587;SDS011;15787;49.662;10.162;2023-03-15T09:21:26;0.10;;;0.10;;
28587;SDS011;15787;49.662;10.162;2023-03-15T09:23:59;0.20;;;0.20;;
28587;SDS011;15787;49.662;10.162;2023-03-15T09:26:32;0.10;;;0.10;;
28587;SDS011;15787;49.662;10.162;2023-03-15T09:29:05;0.10;;;0.10;;
28587;SDS011;15787;49.662;10.162;2023-03-15T09:31:39;5.88;;;2.08;;
28587;SDS011;15787;49.662;10.162;2023-03-15T09:34:12;16.40;;;3.33;;
28587;SDS011;15787;49.662;10.162;2023-03-15T09:36:46;7.40;;;3.40;;
28587;SDS011;15787;49.662;10.162;2023-03-15T09:39:24;6.78;;;3.20;;
28587;SDS011;15787;49.662;10.162;2023-03-15T09:41:56;9.18;;;3.13;;
28587;SDS011;15787;49.662;10.162;2023-03-15T09:44:38;5.82;;;2.38;;
28587;SDS011;15787;49.662;10.162;2023-03-15T09:47:21;7.78;;;2.92;;
28587;SDS011;15787;49.662;10.162;2023-03-15T09:50:11;8.20;;;2.97;;
28587;SDS011;15787;49.662;10.162;2023-03-15T09:52:53;8.18;;;2.83;;
28587;SDS011;15787;49.662;10.162;2023-03-15T09:55:29;7.75;;;2.60;;
28587;SDS011;15787;49.662;10.162;2023-03-15T09:58:02;4.70;;;2.35;;
28587;SDS011;15787;49.662;10.162;2023-03-15T10:00:42;11.43;;;2.55;;
28587;SDS011;15787;49.662;10.162;2023-03-15T10:03:17;9.32;;;2.17;;
28587;SDS011;15787;49.662;10.162;2023-03-15T10:05:59;8.70;;;2.97;;
28587;SDS011;15787;49.662;10.162;2023-03-15T10:08:38;6.88;;;1.92;;
28587;SDS011;15787;49.662;10.162;2023-03-15T10:11:13;5.82;;;2.53;;
28587;SDS011;15787;49.662;10.162;2023-03-15T10:13:54;6.67;;;2.53;;
28587;SDS011;15787;49.662;10.162;2023-03-15T10:16:41;5.28;;;2.67;;
28587;SDS011;15787;49.662;10.162;2023-03-15T10:19:24;10.77;;;2.60;;
28587;SDS011;15787;49.662;10.162;2023-03-15T10:22:11;8.27;;;3.15;;
28587;SDS011;15787;49.662;10.162;2023-03-15T10:24:54;7.43;;;2.15;;
28587;SDS011;15787;49.662;10.162;2023-03-15T10:27:31;4.65;;;2.90;;
28587;SDS011;15787;49.662;10.162;2023-03-15T10:30:12;11.07;;;2.95;;
28587;SDS011;15787;49.662;10.162;2023-03-15T10:32:48;3.50;;;2.33;;
28587;SDS011;15787;49.662;10.162;2023-03-15T10:35:27;7.63;;;2.47;;
28587;SDS011;15787;49.662;10.162;2023-03-15T10:38:01;5.43;;;2.30;;
28587;SDS011;15787;49.662;10.162;2023-03-15T10:40:39;5.93;;;1.65;;
28587;SDS011;15787;49.662;10.162;2023-03-15T10:43:18;6.47;;;2.42;;
28587;SDS011;15787;49.662;10.162;2023-03-15T10:45:59;7.32;;;1.75;;
28587;SDS011;15787;49.662;10.162;2023-03-15T10:48:34;7.18;;;2.00;;
28587;SDS011;15787;49.662;10.162;2023-03-15T10:51:13;3.80;;;1.67;;
28587;SDS011;15787;49.662;10.162;2023-03-15T10:53:52;4.25;;;1.40;;
28587;SDS011;15787;49.662;10.162;2023-03-15T10:56:29;4.63;;;1.65;;
28587;SDS011;15787;49.662;10.162;2023-03-15T10:59:04;6.43;;;1.30;;
28587;SDS011;15787;49.662;10.162;2023-03-15T11:01:48;7.72;;;1.75;;
28587;SDS011;15787;49.662;10.162;2023-03-15T11:04:24;5.65;;;1.77;;
28587;SDS011;15787;49.662;10.162;2023-03-15T11:06:58;6.40;;;1.70;;
28587;SDS011;15787;49.662;10.162;2023-03-15T11:09:37;7.22;;;2.00;;
28587;SDS011;15787;49.662;10.162;2023-03-15T11:12:20;3.63;;;1.63;;
28587;SDS011;15787;49.662;10.162;2023-03-15T11:14:56;6.57;;;2.13;;
28587;SDS011;15787;49.662;10.162;2023-03-15T11:17:31;6.05;;;1.70;;
28587;SDS011;15787;49.662;10.162;2023-03-15T11:20:18;6.70;;;1.88;;
28587;SDS011;15787;49.662;10.162;2023-03-15T11:22:57;5.90;;;1.90;;
28587;SDS011;15787;49.662;10.162;2023-03-15T11:25:34;6.22;;;1.42;;
28587;SDS011;15787;49.662;10.162;2023-03-15T11:28:11;4.82;;;2.20;;
28587;SDS011;15787;49.662;10.162;2023-03-15T11:30:49;7.00;;;1.88;;
28587;SDS011;15787;49.662;10.162;2023-03-15T11:33:28;4.43;;;1.73;;
28587;SDS011;15787;49.662;10.162;2023-03-15T11:36:11;6.13;;;2.05;;
28587;SDS011;15787;49.662;10.162;2023-03-15T11:38:47;3.95;;;1.35;;
28587;SDS011;15787;49.662;10.162;2023-03-15T11:41:26;6.47;;;2.22;;
28587;SDS011;15787;49.662;10.162;2023-03-15T11:44:09;3.35;;;1.50;;
28587;SDS011;15787;49.662;10.162;2023-03-15T11:46:47;3.00;;;1.35;;
28587;SDS011;15787;49.662;10.162;2023-03-15T11:49:28;7.32;;;2.30;;
28587;SDS011;15787;49.662;10.162;2023-03-15T11:52:07;5.70;;;2.00;;
28587;SDS011;15787;49.662;10.162;2023-03-15T11:54:40;6.10;;;2.20;;
28587;SDS011;15787;49.662;10.162;2023-03-15T12:00:18;3.15;;;1.80;;
28587;SDS011;15787;49.662;10.162;2023-03-15T12:03:30;7.72;;;2.40;;
28587;SDS011;15787;49.662;10.162;2023-03-15T12:06:11;8.50;;;2.42;;
28587;SDS011;15787;49.662;10.162;2023-03-15T12:15:30;6.10;;;1.85;;
28587;SDS011;15787;49.662;10.162;2023-03-15T12:18:27;6.10;;;1.83;;
28587;SDS011;15787;49.662;10.162;2023-03-15T12:21:05;5.60;;;1.70;;
28587;SDS011;15787;49.662;10.162;2023-03-15T12:23:42;4.40;;;2.40;;
28587;SDS011;15787;49.662;10.162;2023-03-15T12:26:23;6.47;;;2.50;;
28587;SDS011;15787;49.662;10.162;2023-03-15T12:29:03;6.43;;;2.45;;
28587;SDS011;15787;49.662;10.162;2023-03-15T12:31:45;3.97;;;1.60;;
28587;SDS011;15787;49.662;10.162;2023-03-15T12:34:27;4.63;;;2.00;;
28587;SDS011;15787;49.662;10.162;2023-03-15T12:37:08;5.63;;;1.95;;
28587;SDS011;15787;49.662;10.162;2023-03-15T12:39:47;4.50;;;1.92;;
28587;SDS011;15787;49.662;10.162;2023-03-15T12:45:39;5.97;;;2.00;;
28587;SDS011;15787;49.662;10.162;2023-03-15T12:51:11;4.75;;;2.10;;
28587;SDS011;15787;49.662;10.162;2023-03-15T12:54:22;3.60;;;1.80;;
28587;SDS011;15787;49.662;10.162;2023-03-15T12:56:58;2.08;;;1.38;;
28587;SDS011;15787;49.662;10.162;2023-03-15T12:59:37;4.57;;;1.77;;
28587;SDS011;15787;49.662;10.162;2023-03-15T13:02:24;4.15;;;1.70;;
28587;SDS011;15787;49.662;10.162;2023-03-15T13:05:21;5.10;;;2.10;;
28587;SDS011;15787;49.662;10.162;2023-03-15T13:08:14;4.35;;;1.80;;
28587;SDS011;15787;49.662;10.162;2023-03-15T13:10:55;4.63;;;2.53;;
28587;SDS011;15787;49.662;10.162;2023-03-15T13:13:47;6.00;;;2.70;;
28587;SDS011;15787;49.662;10.162;2023-03-15T13:16:32;4.72;;;2.20;;
28587;SDS011;15787;49.662;10.162;2023-03-15T13:19:15;4.28;;;2.33;;
28587;SDS011;15787;49.662;10.162;2023-03-15T13:22:03;3.88;;;2.05;;
28587;SDS011;15787;49.662;10.162;2023-03-15T13:24:45;5.20;;;2.20;;
28587;SDS011;15787;49.662;10.162;2023-03-15T13:27:29;3.45;;;2.03;;
28587;SDS011;15787;49.662;10.162;2023-03-15T13:30:32;2.88;;;1.95;;
28587;SDS011;15787;49.662;10.162;2023-03-15T13:33:10;4.38;;;2.08;;
28587;SDS011;15787;49.662;10.162;2023-03-15T13:35:56;4.55;;;2.50;;
28587;SDS011;15787;49.662;10.162;2023-03-15T13:38:33;5.07;;;2.70;;
28587;SDS011;15787;49.662;10.162;2023-03-15T13:41:15;3.55;;;2.40;;
28587;SDS011;15787;49.662;10.162;2023-03-15T13:43:50;2.60;;;2.05;;
28587;SDS011;15787;49.662;10.162;2023-03-15T13:46:24;5.10;;;2.63;;
28587;SDS011;15787;49.662;10.162;2023-03-15T13:49:01;5.78;;;2.55;;
28587;SDS011;15787;49.662;10.162;2023-03-15T13:51:34;5.07;;;2.65;;
28587;SDS011;15787;49.662;10.162;2023-03-15T13:54:12;4.22;;;1.95;;
28587;SDS011;15787;49.662;10.162;2023-03-15T13:56:53;3.70;;;2.57;;
28587;SDS011;15787;49.662;10.162;2023-03-15T13:59:30;5.15;;;2.15;;
28587;SDS011;15787;49.662;10.162;2023-03-15T14:02:10;3.25;;;2.40;;
28587;SDS011;15787;49.662;10.162;2023-03-15T14:04:49;4.97;;;2.50;;
28587;SDS011;15787;49.662;10.162;2023-03-15T14:07:25;4.72;;;2.50;;
28587;SDS011;15787;49.662;10.162;2023-03-15T14:10:18;3.33;;;2.40;;
28587;SDS011;15787;49.662;10.162;2023-03-15T14:12:55;3.55;;;2.70;;
28587;SDS011;15787;49.662;10.162;2023-03-15T14:15:33;4.50;;;2.35;;
28587;SDS011;15787;49.662;10.162;2023-03-15T14:18:14;3.30;;;2.30;;
28587;SDS011;15787;49.662;10.162;2023-03-15T14:20:52;3.20;;;2.40;;
28587;SDS011;15787;49.662;10.162;2023-03-15T14:23:28;4.88;;;2.33;;
28587;SDS011;15787;49.662;10.162;2023-03-15T14:26:08;5.60;;;2.40;;
28587;SDS011;15787;49.662;10.162;2023-03-15T14:28:47;3.45;;;2.33;;
28587;SDS011;15787;49.662;10.162;2023-03-15T14:31:24;3.92;;;2.47;;
28587;SDS011;15787;49.662;10.162;2023-03-15T14:34:04;5.40;;;2.75;;
28587;SDS011;15787;49.662;10.162;2023-03-15T14:39:15;3.65;;;2.42;;
28587;SDS011;15787;49.662;10.162;2023-03-15T14:41:52;5.10;;;2.88;;
28587;SDS011;15787;49.662;10.162;2023-03-15T14:44:25;5.22;;;2.45;;
28587;SDS011;15787;49.662;10.162;2023-03-15T14:46:58;5.53;;;2.50;;
28587;SDS011;15787;49.662;10.162;2023-03-15T14:49:31;3.83;;;2.40;;
28587;SDS011;15787;49.662;10.162;2023-03-15T14:52:04;2.75;;;2.05;;
28587;SDS011;15787;49.662;10.162;2023-03-15T14:54:38;3.70;;;2.22;;
28587;SDS011;15787;49.662;10.162;2023-03-15T14:57:19;4.05;;;2.38;;
28587;SDS011;15787;49.662;10.162;2023-03-15T14:59:51;4.72;;;2.78;;
28587;SDS011;15787;49.662;10.162;2023-03-15T15:02:25;2.83;;;1.77;;
28587;SDS011;15787;49.662;10.162;2023-03-15T15:05:00;4.13;;;2.08;;
28587;SDS011;15787;49.662;10.162;2023-03-15T15:07:33;3.88;;;1.90;;
28587;SDS011;15787;49.662;10.162;2023-03-15T15:10:07;5.53;;;2.25;;
28587;SDS011;15787;49.662;10.162;2023-03-15T15:12:42;2.95;;;1.80;;
28587;SDS011;15787;49.662;10.162;2023-03-15T15:15:19;4.68;;;2.13;;
28587;SDS011;15787;49.662;10.162;2023-03-15T15:17:54;6.60;;;2.75;;
28587;SDS011;15787;49.662;10.162;2023-03-15T15:20:27;5.13;;;2.60;;
28587;SDS011;15787;49.662;10.162;2023-03-15T15:23:00;4.57;;;2.42;;
28587;SDS011;15787;49.662;10.162;2023-03-15T15:25:33;4.35;;;2.65;;
28587;SDS011;15787;49.662;10.162;2023-03-15T15:28:08;3.92;;;2.58;;
28587;SDS011;15787;49.662;10.162;2023-03-15T15:30:46;4.10;;;2.30;;
28587;SDS011;15787;49.662;10.162;2023-03-15T15:33:18;5.57;;;2.78;;
28587;SDS011;15787;49.662;10.162;2023-03-15T15:35:53;3.90;;;2.47;;
28587;SDS011;15787;49.662;10.162;2023-03-15T15:38:30;5.63;;;2.55;;
28587;SDS011;15787;49.662;10.162;2023-03-15T15:41:10;3.15;;;2.53;;
28587;SDS011;15787;49.662;10.162;2023-03-15T15:43:47;4.95;;;2.65;;
28587;SDS011;15787;49.662;10.162;2023-03-15T15:46:20;3.15;;;2.58;;
28587;SDS011;15787;49.662;10.162;2023-03-15T15:48:54;3.90;;;2.45;;
28587;SDS011;15787;49.662;10.162;2023-03-15T15:51:27;3.03;;;1.83;;
28587;SDS011;15787;49.662;10.162;2023-03-15T15:54:02;5.95;;;2.00;;
28587;SDS011;15787;49.662;10.162;2023-03-15T15:56:37;2.63;;;2.00;;
28587;SDS011;15787;49.662;10.162;2023-03-15T15:59:12;3.78;;;2.53;;
28587;SDS011;15787;49.662;10.162;2023-03-15T16:01:46;3.75;;;2.10;;